Time;durP1;ratioP1;P1;durP2;ratioP2;P2;SDS_P1;SDS_P2;PMS_P1;PMS_P2;Temp;Humidity;BMP_temperature;BMP_pressure;BME280_temperature;BME280_humidity;BME280_pressure;Samples;Min_cycle;Max_cycle;Signal;HPM_P1;HPM_P2
2023/09/21 00:00:11;;;;;;;10.73;3.88;;;21.50;97.60;;;;;;6303805;22;20003;-74
2023/09/21 00:02:37;;;;;;;7.07;2.75;;;21.50;97.80;;;;;;6303790;22;20082;-74
2023/09/21 00:05:03;;;;;;;6.90;3.05;;;21.50;97.60;;;;;;6305071;22;20035;-74
2023/09/21 00:07:29;;;;;;;8.05;3.05;;;21.50;97.60;;;;;;6307611;22;20049;-74
2023/09/21 00:09:55;;;;;;;5.28;2.75;;;21.50;97.60;;;;;;6307600;22;20075;-74
2023/09/21 00:12:22;;;;;;;7.07;3.28;;;21.40;97.70;;;;;;6307340;22;20133;-75
2023/09/21 00:14:48;;;;;;;7.00;3.20;;;21.40;97.80;;;;;;6304392;22;20050;-74
2023/09/21 00:17:14;;;;;;;4.75;3.05;;;21.30;97.90;;;;;;6306246;22;19999;-76
2023/09/21 00:19:40;;;;;;;5.60;3.13;;;21.30;98.00;;;;;;6307349;22;20009;-74
2023/09/21 00:22:06;;;;;;;9.80;3.13;;;21.30;98.10;;;;;;6305543;22;20003;-74
2023/09/21 00:24:32;;;;;;;8.82;3.20;;;21.30;98.10;;;;;;6305830;22;20007;-75
2023/09/21 00:26:59;;;;;;;6.60;2.83;;;21.30;98.00;;;;;;6306721;22;20004;-74
2023/09/21 00:29:25;;;;;;;9.00;3.08;;;21.30;98.10;;;;;;6303362;22;20093;-74
2023/09/21 00:31:50;;;;;;;7.07;3.28;;;21.30;98.00;;;;;;6306389;22;20322;-75
2023/09/21 00:34:16;;;;;;;13.07;3.58;;;21.30;98.00;;;;;;6307190;22;20021;-74
2023/09/21 00:36:45;;;;;;;7.03;3.28;;;21.20;98.00;;;;;;6307396;22;20007;-74
2023/09/21 00:39:12;;;;;;;6.13;2.90;;;21.20;98.10;;;;;;6307162;22;20029;-74
2023/09/21 00:41:38;;;;;;;5.65;2.85;;;21.20;98.20;;;;;;6305314;22;20011;-74
2023/09/21 00:44:08;;;;;;;9.20;3.25;;;21.20;98.20;;;;;;6307044;22;20479;-73
2023/09/21 00:46:36;;;;;;;5.15;2.80;;;21.20;98.20;;;;;;6306402;22;20321;-73
2023/09/21 00:49:04;;;;;;;5.68;3.00;;;21.10;98.20;;;;;;6306286;22;20167;-73
2023/09/21 00:51:32;;;;;;;5.93;3.00;;;21.10;98.20;;;;;;6306540;22;20010;-74
2023/09/21 00:54:12;;;;;;;9.15;3.60;;;21.10;98.20;;;;;;6306477;22;20092;-74
2023/09/21 00:56:39;;;;;;;4.38;2.85;;;21.10;98.30;;;;;;6307064;22;20003;-74
2023/09/21 00:59:06;;;;;;;8.32;3.13;;;21.10;98.30;;;;;;6303964;22;20416;-73
2023/09/21 01:01:33;;;;;;;9.00;3.45;;;21.10;98.30;;;;;;6303444;22;20049;-74
2023/09/21 01:04:05;;;;;;;9.70;3.00;;;21.10;98.30;;;;;;6303617;22;20079;-74
2023/09/21 01:06:32;;;;;;;6.72;2.75;;;21.10;98.20;;;;;;6303000;22;20011;-73
2023/09/21 01:08:57;;;;;;;7.95;3.50;;;21.10;98.30;;;;;;6302978;22;20002;-73
2023/09/21 01:11:24;;;;;;;7.97;3.13;;;21.10;98.30;;;;;;6307198;22;19999;-74
2023/09/21 01:13:51;;;;;;;8.68;3.00;;;21.00;98.30;;;;;;6303987;22;19995;-73
2023/09/21 01:16:18;;;;;;;6.65;2.85;;;21.00;98.30;;;;;;6302913;22;20007;-73
2023/09/21 01:18:44;;;;;;;8.43;3.03;;;21.00;98.30;;;;;;6305389;22;20005;-73
2023/09/21 01:21:13;;;;;;;8.68;2.92;;;21.00;98.30;;;;;;6302047;22;20608;-73
2023/09/21 01:23:49;;;;;;;6.53;2.70;;;21.00;98.30;;;;;;6305605;22;20328;-74
2023/09/21 01:26:16;;;;;;;7.07;3.10;;;21.00;98.30;;;;;;6304174;22;20001;-74
2023/09/21 01:28:45;;;;;;;6.28;2.70;;;21.00;98.30;;;;;;6306388;22;20090;-74
2023/09/21 01:31:13;;;;;;;7.65;3.00;;;21.00;98.30;;;;;;6307942;22;20011;-73
2023/09/21 01:33:39;;;;;;;6.68;3.10;;;21.00;98.40;;;;;;6307477;22;20000;-73
2023/09/21 01:36:09;;;;;;;9.60;3.13;;;21.00;98.50;;;;;;6303504;22;20027;-72
2023/09/21 01:38:38;;;;;;;7.85;2.95;;;20.90;98.60;;;;;;6304944;22;19995;-74
2023/09/21 01:41:06;;;;;;;11.48;2.55;;;20.90;98.70;;;;;;6306674;22;20006;-75
2023/09/21 01:43:33;;;;;;;6.97;2.65;;;20.90;98.80;;;;;;6274470;22;20502;-74
2023/09/21 01:45:59;;;;;;;6.25;2.85;;;21.00;98.90;;;;;;6306749;22;20003;-75
2023/09/21 01:48:27;;;;;;;4.82;2.95;;;20.90;98.90;;;;;;6304421;22;19999;-74
2023/09/21 01:50:57;;;;;;;6.40;2.90;;;20.90;98.90;;;;;;6305275;22;20015;-74
2023/09/21 01:53:23;;;;;;;5.63;2.50;;;20.90;98.90;;;;;;6306445;22;20003;-74
2023/09/21 01:55:50;;;;;;;10.07;3.08;;;20.90;98.90;;;;;;6304790;22;20050;-73
2023/09/21 01:58:23;;;;;;;12.80;3.33;;;20.90;99.00;;;;;;6306811;22;19999;-74
2023/09/21 02:00:49;;;;;;;10.68;3.25;;;21.00;99.10;;;;;;6304335;22;20011;-73
2023/09/21 02:03:27;;;;;;;10.73;3.25;;;20.90;99.00;;;;;;6308462;22;19999;-74
2023/09/21 02:05:54;;;;;;;11.23;2.90;;;20.90;99.10;;;;;;6308539;22;20375;-73
2023/09/21 02:08:20;;;;;;;10.98;3.03;;;20.90;99.10;;;;;;6306021;22;20145;-73
2023/09/21 02:10:50;;;;;;;7.30;3.45;;;21.00;99.10;;;;;;6306631;22;20035;-74
2023/09/21 02:13:16;;;;;;;8.05;3.15;;;20.90;99.10;;;;;;6306985;22;20393;-73
2023/09/21 02:15:43;;;;;;;6.80;3.10;;;20.90;99.10;;;;;;6308062;22;20466;-73
2023/09/21 02:18:10;;;;;;;8.55;3.05;;;20.90;99.00;;;;;;6280011;22;20353;-73
2023/09/21 02:20:46;;;;;;;8.05;3.05;;;20.90;99.00;;;;;;6307657;22;19999;-73
2023/09/21 02:23:12;;;;;;;11.38;3.10;;;20.90;99.00;;;;;;6306988;22;19999;-73
2023/09/21 02:25:40;;;;;;;6.07;2.83;;;20.90;99.00;;;;;;6307044;22;20421;-73
2023/09/21 02:28:11;;;;;;;5.43;2.88;;;20.90;99.00;;;;;;6307164;22;20025;-75
2023/09/21 02:30:43;;;;;;;8.90;2.97;;;20.90;99.00;;;;;;6306969;22;20098;-73
2023/09/21 02:33:09;;;;;;;8.63;2.88;;;20.90;99.00;;;;;;6308091;22;19995;-73
2023/09/21 02:35:35;;;;;;;7.95;3.00;;;20.90;99.00;;;;;;6307104;22;20010;-74
2023/09/21 02:38:05;;;;;;;8.70;3.17;;;20.90;98.90;;;;;;6308046;22;20005;-74
2023/09/21 02:40:30;;;;;;;9.40;2.83;;;20.90;98.90;;;;;;6308097;22;20380;-73
2023/09/21 02:42:56;;;;;;;9.93;4.38;;;21.00;98.90;;;;;;6308013;22;20019;-74
2023/09/21 02:45:26;;;;;;;7.22;3.10;;;20.90;98.90;;;;;;6307672;22;20070;-74
2023/09/21 02:47:59;;;;;;;10.30;3.15;;;20.90;98.80;;;;;;6308394;22;20004;-74
2023/09/21 02:50:27;;;;;;;6.22;2.67;;;21.00;98.80;;;;;;6307408;22;20011;-74
2023/09/21 02:53:06;;;;;;;8.20;3.08;;;20.90;98.70;;;;;;6307123;22;19999;-74
2023/09/21 02:55:33;;;;;;;8.15;2.72;;;20.90;98.80;;;;;;6307778;22;20007;-72
2023/09/21 02:58:21;;;;;;;4.43;2.83;;;20.80;98.80;;;;;;6308336;22;20082;-74
2023/09/21 03:00:49;;;;;;;5.47;3.08;;;20.90;98.90;;;;;;6306874;22;19999;-74
2023/09/21 03:03:17;;;;;;;7.00;2.75;;;20.90;98.90;;;;;;6306900;22;20443;-73
2023/09/21 03:05:47;;;;;;;5.20;2.95;;;20.80;98.80;;;;;;6307063;22;20817;-74
2023/09/21 03:08:14;;;;;;;8.38;3.10;;;20.80;98.90;;;;;;6306983;22;20329;-74
2023/09/21 03:10:45;;;;;;;7.53;2.55;;;20.80;98.80;;;;;;6306581;22;20014;-73
2023/09/21 03:13:17;;;;;;;8.90;2.70;;;20.80;98.80;;;;;;6307534;22;19999;-74
2023/09/21 03:15:53;;;;;;;6.68;2.58;;;20.80;98.80;;;;;;6307406;22;20398;-73
2023/09/21 03:18:20;;;;;;;6.78;2.95;;;20.80;98.90;;;;;;6308003;22;20432;-73
2023/09/21 03:20:46;;;;;;;5.75;2.55;;;20.80;99.00;;;;;;6306794;22;20078;-74
2023/09/21 03:23:13;;;;;;;8.02;2.78;;;20.70;99.00;;;;;;6306870;22;20027;-74
2023/09/21 03:25:44;;;;;;;9.65;2.78;;;20.70;99.10;;;;;;6307427;22;20007;-74
2023/09/21 03:28:14;;;;;;;8.38;3.10;;;20.70;99.10;;;;;;6306803;22;20002;-73
2023/09/21 03:30:40;;;;;;;7.82;2.90;;;20.70;99.10;;;;;;6306428;22;20090;-74
2023/09/21 03:33:07;;;;;;;6.82;2.88;;;20.70;99.20;;;;;;6307229;22;20077;-73
2023/09/21 03:35:33;;;;;;;10.93;2.80;;;20.70;99.20;;;;;;6306823;22;19999;-74
2023/09/21 03:37:59;;;;;;;7.25;2.80;;;20.70;99.10;;;;;;6306846;22;19995;-73
2023/09/21 03:40:25;;;;;;;7.45;2.80;;;20.70;99.10;;;;;;6306403;22;20070;-74
2023/09/21 03:42:57;;;;;;;4.30;2.85;;;20.70;99.00;;;;;;6306197;22;20025;-74
2023/09/21 03:45:26;;;;;;;10.98;2.63;;;20.60;98.90;;;;;;6306756;22;20064;-74
2023/09/21 03:47:55;;;;;;;7.82;2.80;;;20.60;98.90;;;;;;6306517;22;20318;-73
2023/09/21 03:50:27;;;;;;;12.20;3.38;;;20.60;98.80;;;;;;6306129;22;20011;-73
2023/09/21 03:52:54;;;;;;;8.25;3.22;;;20.60;98.80;;;;;;6306738;22;20006;-74
2023/09/21 03:55:22;;;;;;;6.60;2.72;;;20.60;98.80;;;;;;6307059;22;20325;-73
2023/09/21 03:57:48;;;;;;;7.80;3.03;;;20.60;98.90;;;;;;6306892;22;20003;-72
2023/09/21 04:03:01;;;;;;;9.90;2.80;;;20.50;99.00;;;;;;6304452;22;20372;-74
2023/09/21 04:05:31;;;;;;;8.10;3.40;;;20.50;99.00;;;;;;6303664;22;19999;-73
2023/09/21 04:07:57;;;;;;;5.93;2.70;;;20.50;99.00;;;;;;6306998;22;19999;-73
2023/09/21 04:10:23;;;;;;;8.52;3.10;;;20.50;99.00;;;;;;6303657;22;20011;-74
2023/09/21 04:12:55;;;;;;;8.63;3.28;;;20.50;99.00;;;;;;6307089;22;20003;-73
2023/09/21 04:15:22;;;;;;;8.30;3.50;;;20.50;99.10;;;;;;6307101;22;20026;-74
2023/09/21 04:17:48;;;;;;;7.70;2.80;;;20.50;99.10;;;;;;6304801;22;19995;-73
2023/09/21 04:20:16;;;;;;;9.55;3.10;;;20.60;99.10;;;;;;6304470;22;20479;-73
2023/09/21 04:22:43;;;;;;;7.65;3.25;;;20.60;99.00;;;;;;6305770;22;20385;-74
2023/09/21 04:25:11;;;;;;;10.40;4.13;;;20.60;99.00;;;;;;6307195;22;20033;-74
2023/09/21 04:27:39;;;;;;;6.30;3.25;;;20.50;99.00;;;;;;6304542;22;20316;-73
2023/09/21 04:30:14;;;;;;;10.77;3.83;;;20.50;99.10;;;;;;6306636;22;20014;-74
2023/09/21 04:32:47;;;;;;;12.70;3.45;;;20.50;99.10;;;;;;6279288;22;19999;-74
2023/09/21 04:35:14;;;;;;;11.95;3.95;;;20.50;99.10;;;;;;6307377;22;20389;-74
2023/09/21 04:37:43;;;;;;;8.00;3.60;;;20.50;99.10;;;;;;6307139;22;20070;-73
2023/09/21 04:40:10;;;;;;;5.30;3.42;;;20.50;99.10;;;;;;6306916;22;19999;-73
2023/09/21 04:42:40;;;;;;;11.70;3.90;;;20.50;99.20;;;;;;6306980;22;20071;-74
2023/09/21 04:45:11;;;;;;;11.85;4.22;;;20.50;99.20;;;;;;6307062;22;19999;-73
2023/09/21 04:47:40;;;;;;;8.38;3.50;;;20.50;99.20;;;;;;6304212;22;20017;-73
2023/09/21 04:50:09;;;;;;;9.10;3.45;;;20.50;99.20;;;;;;6275487;22;20039;-73
2023/09/21 04:52:35;;;;;;;7.35;3.35;;;20.40;99.20;;;;;;6303067;22;20081;-73
2023/09/21 04:55:04;;;;;;;7.88;3.53;;;20.40;99.20;;;;;;6305295;22;20072;-73
2023/09/21 04:57:30;;;;;;;9.95;3.75;;;20.40;99.20;;;;;;6306940;22;20003;-73
2023/09/21 04:59:59;;;;;;;9.95;3.95;;;20.40;99.20;;;;;;6302127;22;20433;-72
2023/09/21 05:02:26;;;;;;;11.63;4.05;;;20.40;99.30;;;;;;6304317;22;20006;-73
2023/09/21 05:04:52;;;;;;;15.18;5.00;;;20.40;99.30;;;;;;6305452;22;20049;-72
2023/09/21 05:07:18;;;;;;;13.32;3.70;;;20.40;99.20;;;;;;6304715;22;20006;-71
2023/09/21 05:09:47;;;;;;;10.18;3.42;;;20.30;99.20;;;;;;6306767;22;20008;-72
2023/09/21 05:12:16;;;;;;;8.13;3.65;;;20.30;99.20;;;;;;6306628;22;20027;-72
2023/09/21 05:14:42;;;;;;;9.38;3.90;;;20.30;99.30;;;;;;6306425;22;20094;-73
2023/09/21 05:17:08;;;;;;;7.95;3.85;;;20.30;99.30;;;;;;6307085;22;20000;-74
2023/09/21 05:19:33;;;;;;;13.13;3.80;;;20.30;99.20;;;;;;6306905;22;20314;-73
2023/09/21 05:22:00;;;;;;;9.23;4.10;;;20.30;99.20;;;;;;6306718;22;20089;-73
2023/09/21 05:24:26;;;;;;;12.60;4.15;;;20.40;99.10;;;;;;6306017;22;20011;-73
2023/09/21 05:26:55;;;;;;;10.48;3.58;;;20.30;99.10;;;;;;6306897;22;20007;-73
2023/09/21 05:29:21;;;;;;;11.40;3.80;;;20.30;99.10;;;;;;6306003;22;20037;-74
2023/09/21 05:31:48;;;;;;;8.45;4.05;;;20.30;99.20;;;;;;6304517;22;20464;-74
2023/09/21 05:34:14;;;;;;;7.88;3.95;;;20.30;99.20;;;;;;6278642;22;20010;-73
2023/09/21 05:36:40;;;;;;;9.52;4.25;;;20.30;99.30;;;;;;6307088;22;19999;-72
2023/09/21 05:39:08;;;;;;;9.35;4.05;;;20.30;99.30;;;;;;6308258;22;20490;-72
2023/09/21 05:41:34;;;;;;;9.90;4.40;;;20.30;99.30;;;;;;6307810;22;20011;-73
2023/09/21 05:44:00;;;;;;;7.68;3.70;;;20.30;99.30;;;;;;6307927;22;19999;-73
2023/09/21 05:46:26;;;;;;;5.97;4.07;;;20.40;99.40;;;;;;6308533;22;20026;-73
2023/09/21 05:48:51;;;;;;;8.00;4.30;;;20.40;99.40;;;;;;6308920;22;20405;-73
2023/09/21 05:51:17;;;;;;;13.43;4.53;;;20.40;99.40;;;;;;6308705;22;20038;-73
2023/09/21 05:53:43;;;;;;;12.43;4.93;;;20.40;99.50;;;;;;6308538;22;20379;-74
2023/09/21 05:56:11;;;;;;;10.88;4.13;;;20.40;99.50;;;;;;6308506;22;20004;-73
2023/09/21 05:58:37;;;;;;;6.63;3.35;;;20.40;99.40;;;;;;6308796;22;20038;-73
2023/09/21 06:01:03;;;;;;;6.55;3.45;;;20.40;99.30;;;;;;6308615;22;20006;-73
2023/09/21 06:03:29;;;;;;;7.65;3.60;;;20.40;99.30;;;;;;6308581;22;20004;-73
2023/09/21 06:05:55;;;;;;;11.15;5.25;;;20.40;99.30;;;;;;6308547;22;20456;-74
2023/09/21 06:08:21;;;;;;;9.35;3.42;;;20.50;99.30;;;;;;6308367;22;19995;-73
2023/09/21 06:10:47;;;;;;;10.88;3.50;;;20.50;99.30;;;;;;6308456;22;20380;-73
2023/09/21 06:13:13;;;;;;;9.02;3.75;;;20.50;99.20;;;;;;6308115;22;19995;-73
2023/09/21 06:15:48;;;;;;;10.50;4.10;;;20.50;99.20;;;;;;6307804;22;20026;-73
2023/09/21 06:18:17;;;;;;;11.60;3.85;;;20.50;99.20;;;;;;6308295;22;20421;-72
2023/09/21 06:20:43;;;;;;;10.93;4.00;;;20.50;99.30;;;;;;6308242;22;20425;-73
2023/09/21 06:23:09;;;;;;;8.60;4.03;;;20.50;99.40;;;;;;6308329;22;19999;-72
2023/09/21 06:25:35;;;;;;;12.30;3.83;;;20.50;99.50;;;;;;6280306;22;20038;-74
2023/09/21 06:28:02;;;;;;;11.73;3.58;;;20.50;99.80;;;;;;6307792;22;20334;-73
2023/09/21 06:30:27;;;;;;;10.88;4.57;;;20.50;99.70;;;;;;6308195;22;20011;-73
2023/09/21 06:32:55;;;;;;;8.95;3.90;;;20.50;99.90;;;;;;6307729;22;20006;-73
2023/09/21 06:35:23;;;;;;;12.05;3.65;;;20.50;99.90;;;;;;6308048;22;20026;-73
2023/09/21 06:37:54;;;;;;;19.90;4.00;;;20.50;99.90;;;;;;6308055;22;19999;-72
2023/09/21 06:40:26;;;;;;;8.10;3.60;;;20.60;99.90;;;;;;6308014;22;20436;-72
2023/09/21 06:42:52;;;;;;;;;;;20.60;99.90;;;;;;6308176;22;20443;-72
2023/09/21 06:45:19;;;;;;;9.23;3.88;;;20.60;99.90;;;;;;6307724;22;19899;-72
2023/09/21 06:47:47;;;;;;;6.78;3.28;;;20.60;99.90;;;;;;6307348;22;19999;-72
2023/09/21 06:50:13;;;;;;;11.27;3.80;;;20.70;99.90;;;;;;6307927;22;20372;-72
2023/09/21 06:52:40;;;;;;;8.10;3.65;;;20.70;99.90;;;;;;6307927;22;19999;-73
2023/09/21 06:55:06;;;;;;;7.47;2.90;;;20.70;99.90;;;;;;6308052;22;20007;-73
2023/09/21 06:57:34;;;;;;;13.32;3.92;;;20.70;99.90;;;;;;6308013;22;20005;-73
2023/09/21 07:00:00;;;;;;;9.23;3.70;;;20.70;99.90;;;;;;6307786;22;20302;-72
2023/09/21 07:02:26;;;;;;;8.75;3.30;;;20.80;99.90;;;;;;6307964;22;20007;-73
2023/09/21 07:04:53;;;;;;;9.50;3.53;;;20.80;99.90;;;;;;6280665;22;20011;-73
2023/09/21 07:07:19;;;;;;;6.97;2.83;;;20.80;99.90;;;;;;6307618;22;20003;-73
2023/09/21 07:09:45;;;;;;;9.40;3.58;;;20.80;99.90;;;;;;6280500;22;20380;-72
2023/09/21 07:12:12;;;;;;;12.52;3.90;;;20.80;99.90;;;;;;6307940;22;19995;-73
2023/09/21 07:14:38;;;;;;;12.98;3.17;;;20.80;99.90;;;;;;6307852;22;20011;-73
2023/09/21 07:17:05;;;;;;;10.55;2.90;;;20.80;99.90;;;;;;6307730;22;20004;-72
2023/09/21 07:19:31;;;;;;;8.95;2.92;;;20.90;99.90;;;;;;6307816;22;19995;-73
2023/09/21 07:21:57;;;;;;;9.13;2.97;;;20.90;99.90;;;;;;6307779;22;20019;-72
2023/09/21 07:24:23;;;;;;;13.10;3.28;;;21.00;99.90;;;;;;6307297;22;20319;-72
2023/09/21 07:26:49;;;;;;;7.47;2.75;;;21.00;99.90;;;;;;6307996;22;20393;-73
2023/09/21 07:29:17;;;;;;;11.70;3.83;;;21.00;99.90;;;;;;6280133;22;19999;-73
2023/09/21 07:31:43;;;;;;;12.43;3.58;;;21.10;99.80;;;;;;6307093;22;20010;-71
2023/09/21 07:34:09;;;;;;;10.38;3.40;;;21.10;99.80;;;;;;6307442;22;20023;-72
2023/09/21 07:36:38;;;;;;;8.35;3.08;;;21.20;99.90;;;;;;6307653;22;20006;-73
2023/09/21 07:39:10;;;;;;;12.38;3.85;;;21.20;99.90;;;;;;6307739;22;20070;-74
2023/09/21 07:41:36;;;;;;;8.50;3.00;;;21.20;99.90;;;;;;6307498;22;20015;-77
2023/09/21 07:44:03;;;;;;;11.43;3.05;;;21.30;99.90;;;;;;6307604;22;20456;-76
2023/09/21 07:46:29;;;;;;;7.97;2.97;;;21.20;99.90;;;;;;6307612;22;19999;-76
2023/09/21 07:48:55;;;;;;;7.90;3.25;;;21.20;99.90;;;;;;6307293;22;20006;-76
2023/09/21 07:51:21;;;;;;;14.73;3.70;;;21.30;99.90;;;;;;6307554;22;20011;-75
2023/09/21 07:53:47;;;;;;;9.18;3.10;;;21.30;99.90;;;;;;6307412;22;20002;-76
2023/09/21 07:56:13;;;;;;;14.85;3.55;;;21.20;99.90;;;;;;6307229;22;20456;-75
2023/09/21 07:58:40;;;;;;;6.43;3.17;;;21.20;99.90;;;;;;6307619;22;20021;-77
2023/09/21 08:01:06;;;;;;;10.43;3.83;;;21.30;99.90;;;;;;6307656;22;20310;-76
2023/09/21 08:03:31;;;;;;;14.90;4.05;;;21.30;99.90;;;;;;6307610;22;20014;-77
2023/09/21 08:05:59;;;;;;;11.55;3.38;;;21.30;99.90;;;;;;6307293;22;20010;-77
2023/09/21 08:08:25;;;;;;;13.95;3.58;;;21.30;99.90;;;;;;6307617;22;20006;-77
2023/09/21 08:10:53;;;;;;;9.20;3.17;;;21.30;99.90;;;;;;6306626;22;20018;-75
2023/09/21 08:13:21;;;;;;;8.20;3.13;;;21.30;99.90;;;;;;6306774;22;19995;-75
2023/09/21 08:15:47;;;;;;;9.80;3.78;;;21.30;99.90;;;;;;6306837;22;20041;-75
2023/09/21 08:18:13;;;;;;;7.30;3.40;;;21.30;99.90;;;;;;6306739;22;20003;-75
2023/09/21 08:20:42;;;;;;;9.00;3.67;;;21.20;99.90;;;;;;6307275;22;20082;-76
2023/09/21 08:23:08;;;;;;;11.07;3.40;;;21.20;99.90;;;;;;6307227;22;20003;-76
2023/09/21 08:25:36;;;;;;;10.65;4.30;;;21.20;99.90;;;;;;6307472;22;20022;-77
2023/09/21 08:28:05;;;;;;;14.70;4.20;;;21.20;99.90;;;;;;6307144;22;19999;-73
2023/09/21 08:30:31;;;;;;;11.82;4.45;;;21.20;99.90;;;;;;6307236;22;20014;-76
2023/09/21 08:32:58;;;;;;;12.15;4.93;;;21.20;99.90;;;;;;6307311;22;20010;-75
2023/09/21 08:35:24;;;;;;;14.85;4.72;;;21.20;99.90;;;;;;6307222;22;19999;-75
2023/09/21 08:37:50;;;;;;;13.60;5.10;;;21.20;99.90;;;;;;6307419;22;20053;-76
2023/09/21 08:40:17;;;;;;;14.23;5.72;;;21.20;99.90;;;;;;6307058;22;20366;-76
2023/09/21 08:42:46;;;;;;;13.70;5.40;;;21.20;99.90;;;;;;6306579;22;20022;-76
2023/09/21 08:45:13;;;;;;;14.75;5.20;;;21.10;99.90;;;;;;6306844;22;20444;-75
2023/09/21 08:47:40;;;;;;;12.93;5.38;;;21.10;99.90;;;;;;6306983;22;20003;-75
2023/09/21 08:50:09;;;;;;;9.15;4.68;;;21.00;99.90;;;;;;6306863;22;20060;-75
2023/09/21 08:52:36;;;;;;;12.02;4.80;;;21.00;99.90;;;;;;6306629;22;20358;-75
2023/09/21 08:55:02;;;;;;;14.77;5.88;;;21.00;99.90;;;;;;6307140;22;20007;-76
2023/09/21 08:57:30;;;;;;;10.57;5.05;;;21.00;99.90;;;;;;6306718;22;19999;-76
2023/09/21 09:00:00;;;;;;;13.18;4.65;;;21.00;99.90;;;;;;6307067;22;19999;-75
2023/09/21 09:02:27;;;;;;;12.45;4.70;;;21.00;99.90;;;;;;6306757;22;20065;-76
2023/09/21 09:04:54;;;;;;;11.88;4.97;;;21.00;99.90;;;;;;6306672;22;20082;-76
2023/09/21 09:07:20;;;;;;;14.65;6.03;;;21.00;99.90;;;;;;6306798;22;20364;-77
2023/09/21 09:09:46;;;;;;;16.17;5.10;;;21.00;99.90;;;;;;6308656;22;20007;-75
2023/09/21 09:12:24;;;;;;;10.90;4.88;;;21.00;99.90;;;;;;6308795;22;20007;-76
2023/09/21 09:14:51;;;;;;;9.35;4.88;;;21.00;99.90;;;;;;6309308;22;20046;-77
2023/09/21 09:17:17;;;;;;;11.98;5.40;;;21.00;99.90;;;;;;6308943;22;20070;-76
2023/09/21 09:19:46;;;;;;;15.25;5.43;;;21.00;99.90;;;;;;6309063;22;20417;-75
2023/09/21 09:22:13;;;;;;;16.42;5.88;;;21.00;99.90;;;;;;6281546;22;20018;-75
2023/09/21 09:24:38;;;;;;;14.05;5.28;;;21.00;99.90;;;;;;6308594;22;20025;-75
2023/09/21 09:27:04;;;;;;;11.20;4.70;;;21.00;99.90;;;;;;6309191;22;20003;-74
2023/09/21 09:29:30;;;;;;;16.63;5.18;;;21.00;99.90;;;;;;6308933;22;20014;-75
2023/09/21 09:31:56;;;;;;;18.23;5.10;;;21.00;99.90;;;;;;6308877;22;20489;-74
2023/09/21 09:34:22;;;;;;;15.60;5.53;;;21.00;99.90;;;;;;6308699;22;20004;-75
2023/09/21 09:36:52;;;;;;;12.48;4.63;;;21.10;99.90;;;;;;6308470;22;19999;-75
2023/09/21 09:39:19;;;;;;;8.90;4.05;;;21.10;99.90;;;;;;6308255;22;20003;-75
2023/09/21 09:41:49;;;;;;;13.13;4.95;;;21.10;99.90;;;;;;6308394;22;20114;-76
2023/09/21 09:44:21;;;;;;;10.45;4.28;;;21.10;99.90;;;;;;6308867;22;19996;-76
2023/09/21 09:46:54;;;;;;;10.18;3.97;;;21.10;99.90;;;;;;6308853;22;20071;-76
2023/09/21 09:49:22;;;;;;;9.40;4.55;;;21.10;99.90;;;;;;6308547;22;20026;-75
2023/09/21 09:51:54;;;;;;;15.00;5.10;;;21.10;99.90;;;;;;6308207;22;20075;-76
2023/09/21 09:54:21;;;;;;;12.85;4.97;;;21.10;99.90;;;;;;6308491;22;20000;-76
2023/09/21 09:56:51;;;;;;;14.75;5.10;;;21.10;99.90;;;;;;6308335;22;19999;-75
2023/09/21 09:59:19;;;;;;;12.02;4.65;;;21.10;99.90;;;;;;6308538;22;20003;-77
2023/09/21 10:01:46;;;;;;;10.73;4.20;;;21.10;99.90;;;;;;6308511;22;20003;-77
2023/09/21 10:04:12;;;;;;;7.78;4.10;;;21.10;99.90;;;;;;6308723;22;19995;-76
2023/09/21 10:06:41;;;;;;;8.90;4.63;;;21.10;99.90;;;;;;6308396;22;20003;-74
2023/09/21 10:09:13;;;;;;;10.38;4.88;;;21.10;99.90;;;;;;6308809;22;20330;-75
2023/09/21 10:11:46;;;;;;;16.67;5.57;;;21.10;99.90;;;;;;6309474;22;20003;-75
2023/09/21 10:14:17;;;;;;;9.38;5.05;;;21.10;99.90;;;;;;6281149;22;20387;-75
2023/09/21 10:16:53;;;;;;;13.75;5.13;;;21.10;99.90;;;;;;6308231;22;20010;-75
2023/09/21 10:19:27;;;;;;;11.93;5.25;;;21.10;99.90;;;;;;6307772;22;20041;-76
2023/09/21 10:22:26;;;;;;;12.88;5.00;;;21.00;99.90;;;;;;6308381;22;20017;-77
2023/09/21 10:24:54;;;;;;;8.70;5.13;;;21.10;99.90;;;;;;6308549;22;19999;-77
2023/09/21 10:27:24;;;;;;;13.20;5.63;;;21.10;99.90;;;;;;6308334;22;20072;-77
2023/09/21 10:30:06;;;;;;;14.93;5.15;;;21.10;99.90;;;;;;6308339;22;20015;-76
2023/09/21 10:32:41;;;;;;;;;;;21.10;99.90;;;;;;6308915;22;20428;-78
2023/09/21 10:35:11;;;;;;;8.55;4.82;;;21.10;99.90;;;;;;6308018;22;19898;-77
2023/09/21 10:37:38;;;;;;;11.07;4.93;;;21.10;99.90;;;;;;6308420;22;20006;-72
2023/09/21 10:40:08;;;;;;;10.18;4.60;;;21.20;99.90;;;;;;6308572;22;19999;-77
2023/09/21 10:42:37;;;;;;;14.48;5.45;;;21.20;99.90;;;;;;6308295;22;20074;-78
2023/09/21 10:45:04;;;;;;;12.25;4.47;;;21.20;99.90;;;;;;6307864;22;20053;-78
2023/09/21 10:47:50;;;;;;;11.43;5.65;;;21.20;99.90;;;;;;6306520;22;20372;-78
2023/09/21 10:50:20;;;;;;;8.05;5.30;;;21.30;99.90;;;;;;6307938;22;20007;-78
2023/09/21 10:52:48;;;;;;;9.30;4.82;;;21.30;99.90;;;;;;6308994;22;19999;-79
2023/09/21 10:55:20;;;;;;;10.73;4.82;;;21.40;99.90;;;;;;6307956;22;20061;-79
2023/09/21 10:57:47;;;;;;;10.32;4.63;;;21.40;99.90;;;;;;6307923;22;20006;-79
2023/09/21 11:00:25;;;;;;;15.68;5.38;;;21.50;99.90;;;;;;6307463;22;19999;-79
2023/09/21 11:02:53;;;;;;;13.48;4.43;;;21.50;99.90;;;;;;6307715;22;19995;-79
2023/09/21 11:05:20;;;;;;;10.70;4.40;;;21.60;99.90;;;;;;6305580;22;20473;-72
2023/09/21 11:07:47;;;;;;;8.85;4.05;;;21.60;99.90;;;;;;6305924;22;20006;-73
2023/09/21 11:10:14;;;;;;;13.55;4.90;;;21.60;99.90;;;;;;6307723;22;20092;-72
2023/09/21 11:12:41;;;;;;;11.07;4.63;;;21.60;99.90;;;;;;6308013;22;20007;-72
2023/09/21 11:15:16;;;;;;;12.45;5.28;;;21.60;99.90;;;;;;6307963;22;20460;-70
2023/09/21 11:17:43;;;;;;;14.38;5.35;;;21.60;99.90;;;;;;6308281;22;20013;-73
2023/09/21 11:20:12;;;;;;;13.05;4.70;;;21.60;99.90;;;;;;6307651;22;20486;-72
2023/09/21 11:22:49;;;;;;;9.75;4.55;;;21.60;99.90;;;;;;6307317;22;20070;-74
2023/09/21 11:25:20;;;;;;;13.43;5.55;;;21.60;99.90;;;;;;6307382;22;20096;-72
2023/09/21 11:27:46;;;;;;;12.55;5.35;;;21.60;99.90;;;;;;6307383;22;20040;-70
2023/09/21 11:30:13;;;;;;;13.13;5.22;;;21.60;99.90;;;;;;6306719;22;20388;-71
2023/09/21 11:32:46;;;;;;;16.33;5.97;;;21.60;99.90;;;;;;6307075;22;20003;-73
2023/09/21 11:35:14;;;;;;;11.18;5.38;;;21.60;99.90;;;;;;6279602;22;20015;-72
2023/09/21 11:37:41;;;;;;;13.75;5.78;;;21.60;99.90;;;;;;6307190;22;20003;-76
2023/09/21 11:40:13;;;;;;;13.55;5.53;;;21.60;99.90;;;;;;6279282;22;20007;-75
2023/09/21 11:42:46;;;;;;;16.55;5.88;;;21.60;99.90;;;;;;6307388;22;19999;-76
2023/09/21 11:45:16;;;;;;;17.33;4.85;;;21.60;99.90;;;;;;6307516;22;20025;-76
2023/09/21 11:47:49;;;;;;;14.07;5.85;;;21.50;99.90;;;;;;6307480;22;20022;-77
2023/09/21 11:50:34;;;;;;;12.35;4.88;;;21.60;99.90;;;;;;6307084;22;20011;-76
2023/09/21 11:53:06;;;;;;;10.88;4.45;;;21.60;99.90;;;;;;6277508;22;20003;-77
2023/09/21 11:55:32;;;;;;;7.38;3.60;;;21.60;99.90;;;;;;6304442;22;20086;-78
2023/09/21 11:58:06;;;;;;;12.95;3.88;;;21.60;99.90;;;;;;6304587;22;20341;-78
2023/09/21 12:00:43;;;;;;;11.13;3.38;;;21.50;99.90;;;;;;6307148;22;20033;-76
2023/09/21 12:03:13;;;;;;;8.77;3.03;;;21.50;99.90;;;;;;6306969;22;20519;-76
2023/09/21 12:05:43;;;;;;;13.75;3.15;;;21.50;99.90;;;;;;6307430;22;20082;-78
2023/09/21 12:08:16;;;;;;;8.00;3.00;;;21.40;99.90;;;;;;6306743;22;20003;-77
2023/09/21 12:10:45;;;;;;;12.27;3.63;;;21.40;99.90;;;;;;6307168;22;20015;-77
2023/09/21 12:13:11;;;;;;;11.50;3.35;;;21.40;99.90;;;;;;6307169;22;20002;-77
2023/09/21 12:15:41;;;;;;;11.75;3.75;;;21.30;99.90;;;;;;6306818;22;20437;-77
2023/09/21 12:18:07;;;;;;;13.52;3.38;;;21.30;99.90;;;;;;6307094;22;20038;-78
2023/09/21 12:20:34;;;;;;;10.02;4.03;;;21.20;99.90;;;;;;6307060;22;20003;-78
2023/09/21 12:23:01;;;;;;;10.73;3.58;;;21.20;99.90;;;;;;6306651;22;19995;-78
2023/09/21 12:25:26;;;;;;;10.65;3.85;;;21.20;99.90;;;;;;6307251;22;20003;-77
2023/09/21 12:27:52;;;;;;;12.98;4.63;;;21.20;99.90;;;;;;6306805;22;20007;-75
2023/09/21 12:30:18;;;;;;;10.15;4.03;;;21.30;99.90;;;;;;6306625;22;20056;-75
2023/09/21 12:32:44;;;;;;;9.52;3.65;;;21.40;99.90;;;;;;6306960;22;20000;-77
2023/09/21 12:35:11;;;;;;;8.60;3.70;;;21.50;99.90;;;;;;6307336;22;20432;-77
2023/09/21 12:37:39;;;;;;;10.68;3.65;;;21.60;99.90;;;;;;6307022;22;20317;-78
2023/09/21 12:40:11;;;;;;;8.75;3.13;;;21.70;99.90;;;;;;6279305;22;20011;-77
2023/09/21 12:42:42;;;;;;;;;;;21.80;99.90;;;;;;6307508;22;20136;-77
2023/09/21 12:45:11;;;;;;;11.63;4.35;;;21.80;99.90;;;;;;6306742;22;19906;-78
2023/09/21 12:47:39;;;;;;;7.47;3.00;;;21.80;99.90;;;;;;6307091;22;20034;-77
2023/09/21 12:50:06;;;;;;;9.15;3.05;;;21.70;99.90;;;;;;6307154;22;20364;-77